Time;durP1;ratioP1;P1;durP2;ratioP2;P2;SDS_P1;SDS_P2;PMS_P1;PMS_P2;Temp;Humidity;BMP_temperature;BMP_pressure;BME280_temperature;BME280_humidity;BME280_pressure;Samples;Min_cycle;Max_cycle;Signal;HPM_P1;HPM_P2
2022/09/22 00:00:20;;;;;;;4.30;3.23;;;;;;;6.49;100.00;100911.91;5001182;28;20188;-70
2022/09/22 00:02:45;;;;;;;4.87;3.67;;;;;;;6.45;100.00;100923.09;5007738;28;20265;-68
2022/09/22 00:05:14;;;;;;;3.97;3.30;;;;;;;6.50;100.00;100921.25;5012771;28;20197;-69
2022/09/22 00:07:39;;;;;;;4.83;2.90;;;;;;;6.33;100.00;100915.72;5013091;28;20206;-69
2022/09/22 00:10:07;;;;;;;4.40;3.17;;;;;;;6.40;100.00;100919.78;5001703;28;20771;-69
2022/09/22 00:12:35;;;;;;;4.30;2.80;;;;;;;6.42;100.00;100918.84;5016553;28;20542;-69
2022/09/22 00:15:01;;;;;;;5.87;3.30;;;;;;;6.28;100.00;100915.81;5012606;28;20180;-70
2022/09/22 00:17:29;;;;;;;5.63;3.30;;;;;;;6.36;100.00;100924.13;5014409;28;20182;-68
2022/09/22 00:19:57;;;;;;;4.47;3.20;;;;;;;6.31;100.00;100928.50;5012771;28;20192;-68
2022/09/22 00:22:23;;;;;;;4.03;2.90;;;;;;;6.29;100.00;100925.16;5019051;28;20228;-68
2022/09/22 00:24:53;;;;;;;5.27;2.90;;;;;;;6.26;100.00;100930.31;5013540;28;20179;-69
2022/09/22 00:27:23;;;;;;;4.10;3.00;;;;;;;6.26;100.00;100923.53;5013957;28;20172;-69
2022/09/22 00:29:49;;;;;;;4.33;3.67;;;;;;;6.26;100.00;100928.63;5012718;28;20652;-69
2022/09/22 00:32:15;;;;;;;3.40;3.00;;;;;;;6.21;100.00;100925.31;5018734;28;20306;-69
2022/09/22 00:34:43;;;;;;;4.90;3.17;;;;;;;6.14;100.00;100923.81;5010036;28;20655;-69
2022/09/22 00:37:08;;;;;;;7.43;3.70;;;;;;;6.13;100.00;100925.50;5013704;28;20179;-70
2022/09/22 00:39:34;;;;;;;4.00;3.47;;;;;;;6.07;100.00;100927.38;5017542;28;20198;-70
2022/09/22 00:41:59;;;;;;;3.90;3.03;;;;;;;6.08;100.00;100921.38;5010279;28;20616;-69
2022/09/22 00:44:43;;;;;;;3.43;3.00;;;;;;;6.06;100.00;100918.84;5023414;28;20269;-69
2022/09/22 00:47:40;;;;;;;4.80;3.40;;;;;;;5.98;100.00;100919.03;5029903;28;20547;-69
2022/09/22 00:50:18;;;;;;;5.00;3.90;;;;;;;5.91;100.00;100912.34;5008229;28;20205;-70
2022/09/22 00:52:52;;;;;;;4.10;3.67;;;;;;;5.96;100.00;100912.25;5022795;28;20621;-69
2022/09/22 00:55:23;;;;;;;3.77;3.33;;;;;;;5.97;100.00;100917.31;5021385;28;20633;-70
2022/09/22 00:57:51;;;;;;;5.43;3.33;;;;;;;5.98;100.00;100915.59;5031040;28;20300;-69
2022/09/22 01:00:17;;;;;;;4.87;3.80;;;;;;;5.94;100.00;100913.97;5006703;28;20175;-69
2022/09/22 01:02:49;;;;;;;5.47;4.23;;;;;;;5.89;100.00;100906.44;5025430;28;20238;-69
2022/09/22 01:05:15;;;;;;;4.03;3.60;;;;;;;5.93;100.00;100909.78;5015174;28;20180;-69
2022/09/22 01:07:41;;;;;;;5.17;3.57;;;;;;;5.93;100.00;100912.31;5018177;28;20595;-69
2022/09/22 01:10:10;;;;;;;5.67;4.03;;;;;;;5.91;100.00;100907.22;5014311;28;20182;-70
2022/09/22 01:12:40;;;;;;;7.23;3.97;;;;;;;5.95;100.00;100906.31;5028145;28;20194;-70
2022/09/22 01:15:15;;;;;;;4.73;3.97;;;;;;;5.90;100.00;100894.50;5012704;28;21405;-69
2022/09/22 01:18:09;;;;;;;5.90;4.10;;;;;;;5.78;100.00;100898.16;5016827;28;20269;-69
2022/09/22 01:21:11;;;;;;;4.27;3.87;;;;;;;5.79;100.00;100897.28;5013967;28;20253;-69
2022/09/22 01:24:18;;;;;;;5.30;4.07;;;;;;;5.76;100.00;100892.25;5027300;28;20189;-70
2022/09/22 01:26:46;;;;;;;4.73;3.97;;;;;;;5.77;100.00;100899.06;5027448;28;20543;-69
2022/09/22 01:29:36;;;;;;;6.80;4.20;;;;;;;5.71;100.00;100897.47;5026108;28;20228;-69
2022/09/22 01:32:18;;;;;;;4.47;3.83;;;;;;;5.71;100.00;100889.81;5029670;28;20251;-69
2022/09/22 01:34:52;;;;;;;5.43;3.97;;;;;;;5.72;100.00;100896.59;5003710;28;20638;-69
2022/09/22 01:37:26;;;;;;;4.57;3.50;;;;;;;5.73;100.00;100888.06;5018806;28;20173;-69
2022/09/22 01:40:01;;;;;;;4.17;3.30;;;;;;;5.69;100.00;100886.44;5017004;28;20197;-70
2022/09/22 01:42:34;;;;;;;5.00;3.50;;;;;;;5.64;100.00;100899.31;4989631;28;20241;-70
2022/09/22 01:45:15;;;;;;;4.10;3.70;;;;;;;5.72;100.00;100890.63;5027355;28;20233;-70
2022/09/22 01:47:52;;;;;;;10.83;3.80;;;;;;;5.69;100.00;100894.09;5010472;28;20229;-70
2022/09/22 01:50:41;;;;;;;6.63;4.30;;;;;;;5.61;100.00;100894.25;5014495;28;20188;-70
2022/09/22 01:53:11;;;;;;;6.87;3.77;;;;;;;5.63;100.00;100897.63;5036672;28;20204;-69
2022/09/22 01:55:41;;;;;;;7.87;4.00;;;;;;;5.60;100.00;100890.03;5012642;28;20209;-69
2022/09/22 01:58:20;;;;;;;4.63;3.67;;;;;;;5.48;100.00;100887.72;5018236;28;20201;-70
2022/09/22 02:00:59;;;;;;;4.97;3.87;;;;;;;5.66;100.00;100897.56;5007742;28;20321;-70
2022/09/22 02:03:37;;;;;;;4.67;3.93;;;;;;;5.66;100.00;100889.06;5020483;28;20637;-71
2022/09/22 02:06:38;;;;;;;4.50;3.23;;;;;;;5.62;100.00;100890.00;5020546;28;20182;-69
2022/09/22 02:09:12;;;;;;;4.80;3.73;;;;;;;5.63;100.00;100892.53;5016604;28;20198;-70
2022/09/22 02:11:38;;;;;;;5.13;4.07;;;;;;;5.45;100.00;100892.91;5014889;28;20355;-69
2022/09/22 02:14:05;;;;;;;5.77;4.10;;;;;;;5.52;100.00;100894.47;5024799;28;20185;-69
2022/09/22 02:16:33;;;;;;;7.03;4.33;;;;;;;5.46;100.00;100889.50;5028849;28;20658;-69
2022/09/22 02:19:10;;;;;;;3.90;3.50;;;;;;;5.46;100.00;100890.31;5025440;28;20174;-69
2022/09/22 02:21:38;;;;;;;4.10;3.70;;;;;;;5.38;100.00;100893.91;5016082;28;20589;-69
2022/09/22 02:24:03;;;;;;;5.97;3.77;;;;;;;5.50;100.00;100889.38;5026778;28;20183;-69
2022/09/22 02:26:32;;;;;;;5.43;3.70;;;;;;;5.53;100.00;100885.09;5012159;28;20186;-69
2022/09/22 02:29:01;;;;;;;8.23;4.20;;;;;;;5.50;100.00;100880.88;5012407;28;20194;-69
2022/09/22 02:31:31;;;;;;;6.20;3.83;;;;;;;5.44;100.00;100883.56;5007462;28;20238;-68
2022/09/22 02:34:00;;;;;;;5.57;3.60;;;;;;;5.38;100.00;100879.41;5014992;28;20178;-69
2022/09/22 02:36:49;;;;;;;6.67;3.43;;;;;;;5.23;100.00;100875.47;5021831;28;20218;-68
2022/09/22 02:39:36;;;;;;;6.13;3.50;;;;;;;5.30;100.00;100878.75;5010966;28;20272;-68
2022/09/22 02:42:20;;;;;;;5.50;3.27;;;;;;;5.32;100.00;100889.75;5002974;28;20306;-69
2022/09/22 02:44:53;;;;;;;4.07;3.40;;;;;;;5.27;100.00;100876.25;5006226;28;20234;-69
2022/09/22 02:47:27;;;;;;;4.60;3.30;;;;;;;5.26;100.00;100872.00;5013762;28;20193;-68
2022/09/22 02:49:54;;;;;;;5.53;3.33;;;;;;;5.34;100.00;100873.53;5011412;28;20187;-69
2022/09/22 02:52:22;;;;;;;5.03;3.70;;;;;;;5.26;100.00;100861.81;5030582;28;20233;-69
2022/09/22 02:54:47;;;;;;;6.27;3.80;;;;;;;5.29;100.00;100861.75;5017254;28;20190;-72
2022/09/22 02:57:12;;;;;;;3.87;3.47;;;;;;;5.26;100.00;100862.66;5014446;28;20246;-68
2022/09/22 02:59:38;;;;;;;5.53;3.50;;;;;;;5.24;100.00;100861.84;5022700;28;20185;-69
2022/09/22 03:02:03;;;;;;;5.70;3.83;;;;;;;5.24;100.00;100859.28;4976164;28;20583;-69
2022/09/22 03:04:28;;;;;;;3.70;3.40;;;;;;;5.24;100.00;100858.47;5015643;28;20190;-69
2022/09/22 03:06:56;;;;;;;4.33;3.33;;;;;;;5.20;100.00;100860.25;5031815;28;20189;-70
2022/09/22 03:09:21;;;;;;;6.00;3.50;;;;;;;5.16;100.00;100863.72;5009935;28;20606;-69
2022/09/22 03:11:49;;;;;;;5.23;3.47;;;;;;;5.14;100.00;100856.09;5011488;28;20283;-70
2022/09/22 03:14:14;;;;;;;5.90;3.53;;;;;;;5.28;100.00;100860.06;5019377;28;20195;-69
2022/09/22 03:16:39;;;;;;;5.20;3.93;;;;;;;5.23;100.00;100855.06;5010169;28;20697;-69
2022/09/22 03:19:05;;;;;;;3.97;3.20;;;;;;;5.17;100.00;100848.38;5014241;28;20193;-69
2022/09/22 03:21:30;;;;;;;4.70;3.80;;;;;;;5.20;100.00;100855.13;5018203;28;20692;-69
2022/09/22 03:23:56;;;;;;;5.70;3.47;;;;;;;5.13;100.00;100851.84;5022324;28;20210;-69
2022/09/22 03:26:21;;;;;;;4.87;3.47;;;;;;;5.13;100.00;100845.91;5022976;28;20547;-69
2022/09/22 03:28:47;;;;;;;5.77;3.40;;;;;;;5.14;100.00;100847.59;5011050;28;20193;-68
2022/09/22 03:31:12;;;;;;;4.50;3.33;;;;;;;5.12;100.00;100839.13;4982048;28;20223;-69
2022/09/22 03:33:38;;;;;;;6.33;3.87;;;;;;;5.10;100.00;100836.63;5008418;28;20182;-71
2022/09/22 03:36:06;;;;;;;4.00;3.40;;;;;;;5.07;100.00;100826.47;5035136;28;20182;-68
2022/09/22 03:38:32;;;;;;;7.17;3.50;;;;;;;5.05;100.00;100833.31;5019962;28;20197;-69
2022/09/22 03:41:01;;;;;;;4.30;3.60;;;;;;;5.04;100.00;100828.25;5020351;28;20217;-69
2022/09/22 03:43:26;;;;;;;4.10;3.80;;;;;;;5.05;100.00;100832.47;5034363;28;20264;-68
2022/09/22 03:45:58;;;;;;;5.53;4.23;;;;;;;4.94;100.00;100830.16;5025526;28;20230;-69
2022/09/22 03:48:28;;;;;;;4.53;3.80;;;;;;;4.97;100.00;100840.28;5029471;28;20205;-69
2022/09/22 03:50:57;;;;;;;4.43;3.57;;;;;;;4.96;100.00;100833.50;5022410;28;20235;-69
2022/09/22 03:53:23;;;;;;;4.27;3.77;;;;;;;5.03;100.00;100834.22;5029420;28;20201;-69
2022/09/22 03:55:52;;;;;;;9.83;3.77;;;;;;;4.98;100.00;100836.88;5016890;28;20185;-69
2022/09/22 03:58:20;;;;;;;4.83;3.53;;;;;;;4.94;100.00;100841.19;5003634;28;20178;-69
2022/09/22 04:00:47;;;;;;;5.07;4.30;;;;;;;4.97;100.00;100837.72;5019413;28;20229;-69
2022/09/22 04:03:13;;;;;;;5.27;4.47;;;;;;;4.90;100.00;100837.03;5034027;28;20178;-71
2022/09/22 04:05:38;;;;;;;5.23;4.53;;;;;;;4.90;100.00;100846.34;5019294;28;20194;-70
2022/09/22 04:08:09;;;;;;;7.00;4.27;;;;;;;4.94;100.00;100835.25;5012624;28;20183;-70
2022/09/22 04:10:34;;;;;;;6.10;4.27;;;;;;;4.94;100.00;100836.09;4991825;28;20240;-69
2022/09/22 04:12:59;;;;;;;7.63;4.33;;;;;;;4.91;100.00;100842.94;5006952;28;20568;-69
2022/09/22 04:15:25;;;;;;;6.67;4.10;;;;;;;4.87;100.00;100838.78;5001838;28;20191;-69
2022/09/22 04:17:50;;;;;;;4.97;4.33;;;;;;;4.84;100.00;100840.50;5007185;28;20175;-69
2022/09/22 04:20:15;;;;;;;4.70;4.17;;;;;;;4.83;100.00;100838.81;5005917;28;20195;-70
2022/09/22 04:22:41;;;;;;;4.50;3.90;;;;;;;4.85;100.00;100842.19;5027761;28;20289;-69
2022/09/22 04:25:10;;;;;;;4.27;3.87;;;;;;;4.87;100.00;100837.06;5008568;28;20191;-69
2022/09/22 04:27:35;;;;;;;5.73;4.80;;;;;;;4.89;100.00;100831.94;5022409;28;20185;-69
2022/09/22 04:30:01;;;;;;;5.23;4.10;;;;;;;4.82;100.00;100834.59;5012314;28;21017;-71
2022/09/22 04:32:27;;;;;;;4.93;4.40;;;;;;;4.79;100.00;100839.75;4987822;28;20222;-70
2022/09/22 04:34:52;;;;;;;8.07;4.67;;;;;;;4.80;100.00;100835.50;5012014;28;20175;-70
2022/09/22 04:37:17;;;;;;;4.80;4.30;;;;;;;4.79;100.00;100837.22;5011379;28;20189;-69
2022/09/22 04:39:42;;;;;;;5.93;4.70;;;;;;;4.81;100.00;100834.63;5012199;28;20596;-69
2022/09/22 04:42:08;;;;;;;7.33;3.73;;;;;;;4.80;100.00;100836.34;5018574;28;20239;-69
2022/09/22 04:44:36;;;;;;;5.40;4.50;;;;;;;4.82;100.00;100834.59;5022966;28;20186;-69
2022/09/22 04:47:02;;;;;;;7.97;4.37;;;;;;;4.80;100.00;100841.44;5021745;28;20274;-69
2022/09/22 04:49:30;;;;;;;5.33;4.80;;;;;;;4.82;100.00;100832.03;5021350;28;20638;-69
2022/09/22 04:51:55;;;;;;;6.07;4.67;;;;;;;4.79;100.00;100838.94;5029284;28;20301;-69
2022/09/22 04:54:23;;;;;;;5.00;4.23;;;;;;;4.68;100.00;100839.13;5016389;28;20611;-68
2022/09/22 04:56:48;;;;;;;5.27;4.13;;;;;;;4.78;100.00;100842.34;5021029;28;20178;-68
2022/09/22 04:59:14;;;;;;;11.23;4.60;;;;;;;4.83;100.00;100835.44;5028033;28;20335;-69
2022/09/22 05:01:39;;;;;;;7.27;4.33;;;;;;;4.81;100.00;100843.13;5034061;28;20232;-68
2022/09/22 05:04:04;;;;;;;9.20;5.17;;;;;;;4.79;100.00;100849.13;5031959;28;20634;-68
2022/09/22 05:06:30;;;;;;;7.10;4.60;;;;;;;4.78;100.00;100852.53;5028584;28;20694;-69
2022/09/22 05:08:58;;;;;;;7.70;4.70;;;;;;;4.71;100.00;100843.31;5014640;28;20634;-69
2022/09/22 05:11:23;;;;;;;7.27;4.43;;;;;;;4.74;100.00;100856.00;5014306;28;20230;-70
2022/09/22 05:13:49;;;;;;;6.60;4.63;;;;;;;4.73;100.00;100844.16;5025811;28;20189;-68
2022/09/22 05:16:15;;;;;;;14.07;4.83;;;;;;;4.77;100.00;100846.59;5028635;28;20189;-68
2022/09/22 05:18:41;;;;;;;8.97;4.40;;;;;;;4.81;100.00;100845.69;5019238;28;20187;-70
2022/09/22 05:21:09;;;;;;;5.20;4.23;;;;;;;4.77;100.00;100845.75;5012287;28;20244;-69
2022/09/22 05:23:35;;;;;;;6.67;4.70;;;;;;;4.83;100.00;100845.66;5010862;28;20336;-70
2022/09/22 05:26:00;;;;;;;5.00;4.30;;;;;;;4.84;100.00;100847.34;5019651;28;20309;-70
2022/09/22 05:28:28;;;;;;;5.73;5.10;;;;;;;4.81;100.00;100855.03;5013516;28;20273;-69
2022/09/22 05:30:54;;;;;;;8.40;4.10;;;;;;;4.82;100.00;100854.16;5009560;28;20238;-70
2022/09/22 05:33:19;;;;;;;6.43;4.10;;;;;;;4.91;100.00;100866.75;5010978;28;20182;-70
2022/09/22 05:35:44;;;;;;;4.53;4.13;;;;;;;4.94;100.00;100851.38;5025404;28;20910;-70
2022/09/22 05:38:10;;;;;;;6.97;4.70;;;;;;;4.92;100.00;100860.75;5017225;28;20178;-70
2022/09/22 05:40:35;;;;;;;8.60;4.30;;;;;;;4.97;100.00;100858.13;5004781;28;20315;-70
2022/09/22 05:43:00;;;;;;;5.40;4.53;;;;;;;4.99;100.00;100856.41;5020853;28;20210;-70
2022/09/22 05:45:26;;;;;;;9.47;5.33;;;;;;;5.11;100.00;100863.81;5009984;28;20234;-70
2022/09/22 05:47:52;;;;;;;5.23;4.73;;;;;;;5.18;100.00;100861.97;5019901;28;20264;-69
2022/09/22 05:50:19;;;;;;;8.93;5.57;;;;;;;5.24;100.00;100872.03;5016885;28;20239;-70
2022/09/22 05:52:48;;;;;;;8.73;5.93;;;;;;;5.24;100.00;100864.41;5025406;28;20178;-69
2022/09/22 05:55:15;;;;;;;8.27;5.17;;;;;;;5.30;100.00;100863.44;5016821;28;20187;-70
2022/09/22 05:57:42;;;;;;;9.40;4.83;;;;;;;5.35;100.00;100866.72;5023870;28;20189;-69
2022/09/22 06:00:09;;;;;;;6.97;5.03;;;;;;;5.44;100.00;100865.69;5008019;28;20633;-70
2022/09/22 06:02:37;;;;;;;7.87;5.33;;;;;;;5.50;100.00;100866.41;5016442;28;20293;-70
2022/09/22 06:05:02;;;;;;;11.33;5.00;;;;;;;5.58;100.00;100857.75;5017534;28;20198;-70
2022/09/22 06:07:28;;;;;;;7.33;5.43;;;;;;;5.66;100.00;100861.81;5016396;28;20761;-70
2022/09/22 06:09:55;;;;;;;7.03;5.00;;;;;;;5.76;100.00;100864.19;5024275;28;20182;-69
2022/09/22 06:12:21;;;;;;;6.03;4.90;;;;;;;5.88;100.00;100861.34;5012211;28;20237;-69
2022/09/22 06:14:46;;;;;;;7.80;4.80;;;;;;;5.93;100.00;100861.25;4997072;28;20284;-69
2022/09/22 06:17:15;;;;;;;7.37;5.60;;;;;;;6.06;100.00;100862.66;5003063;28;20200;-70
2022/09/22 06:19:41;;;;;;;7.17;4.90;;;;;;;6.01;100.00;100864.47;5008798;28;20190;-69
2022/09/22 06:22:09;;;;;;;6.90;4.97;;;;;;;6.31;100.00;100862.06;5012126;28;20222;-70
2022/09/22 06:24:35;;;;;;;7.87;5.00;;;;;;;6.74;100.00;100858.41;5009674;28;20183;-70
2022/09/22 06:27:00;;;;;;;5.77;4.73;;;;;;;7.48;100.00;100849.56;4998954;28;20557;-69
2022/09/22 06:29:28;;;;;;;10.00;4.93;;;;;;;8.34;100.00;100849.44;5009276;28;20241;-70
2022/09/22 06:31:54;;;;;;;5.37;4.87;;;;;;;9.20;100.00;100837.94;5003064;28;20340;-71
2022/09/22 06:34:19;;;;;;;5.00;4.40;;;;;;;10.14;100.00;100830.84;5004978;28;20271;-70
2022/09/22 06:36:44;;;;;;;4.63;4.23;;;;;;;11.97;100.00;100833.13;5009223;28;20277;-70
2022/09/22 06:39:11;;;;;;;4.20;3.70;;;;;;;13.29;100.00;100827.25;5014128;28;20789;-71
2022/09/22 06:41:37;;;;;;;4.67;4.10;;;;;;;15.21;83.00;100825.69;5005309;28;20253;-70
2022/09/22 06:44:05;;;;;;;3.80;3.27;;;;;;;15.79;67.55;100818.59;5009675;28;20191;-71
2022/09/22 06:46:32;;;;;;;4.97;3.03;;;;;;;16.80;61.12;100825.72;5011961;28;20646;-71
2022/09/22 06:48:58;;;;;;;3.77;2.87;;;;;;;16.58;62.73;100828.97;5009878;28;20186;-70
2022/09/22 06:51:32;;;;;;;5.50;2.70;;;;;;;16.68;59.90;100829.97;5009396;28;20225;-70
2022/09/22 06:54:06;;;;;;;7.43;2.80;;;;;;;18.95;52.18;100830.91;5004093;28;20813;-74
2022/09/22 06:56:35;;;;;;;7.43;3.20;;;;;;;19.77;45.71;100829.59;5008853;28;20187;-70
2022/09/22 06:59:01;;;;;;;4.60;2.90;;;;;;;20.57;43.82;100832.56;5008455;28;20175;-70
2022/09/22 07:01:29;;;;;;;5.23;2.97;;;;;;;21.21;42.45;100832.38;4982104;28;20333;-69
2022/09/22 07:03:55;;;;;;;5.33;2.80;;;;;;;21.49;40.27;100833.38;5000663;28;20316;-70
2022/09/22 07:06:23;;;;;;;4.77;2.63;;;;;;;20.84;40.88;100838.19;5010228;28;20263;-70
2022/09/22 07:08:48;;;;;;;5.70;2.83;;;;;;;21.41;40.38;100841.91;5005607;28;20270;-70
2022/09/22 07:11:16;;;;;;;5.50;2.83;;;;;;;21.91;38.94;100846.19;5008077;28;20359;-70
2022/09/22 07:13:43;;;;;;;3.00;2.20;;;;;;;22.75;37.91;100843.78;5004736;28;20179;-70
2022/09/22 07:16:11;;;;;;;6.37;2.77;;;;;;;22.01;38.02;100838.31;4999883;28;20234;-70
2022/09/22 07:18:47;;;;;;;4.53;2.60;;;;;;;20.64;41.31;100841.53;5004736;28;20265;-69
2022/09/22 07:21:19;;;;;;;4.20;2.70;;;;;;;19.50;43.38;100848.34;5006314;28;20751;-61
2022/09/22 07:23:51;;;;;;;4.60;2.67;;;;;;;19.93;44.25;100839.66;5014994;28;20190;-61
2022/09/22 07:26:20;;;;;;;4.10;2.60;;;;;;;18.79;46.61;100849.50;5010206;28;20186;-60
2022/09/22 07:28:50;;;;;;;4.67;2.70;;;;;;;17.84;52.09;100840.06;5010735;28;20610;-62
2022/09/22 07:31:16;;;;;;;4.93;2.60;;;;;;;18.54;49.40;100840.09;4979417;28;20244;-63
2022/09/22 07:33:43;;;;;;;4.40;2.10;;;;;;;17.59;50.40;100843.63;5010733;28;20175;-62
2022/09/22 07:36:20;;;;;;;6.13;2.37;;;;;;;17.68;51.49;100836.91;5007995;28;20274;-62
2022/09/22 07:38:50;;;;;;;4.33;2.17;;;;;;;17.63;51.98;100842.44;5011313;28;20194;-61
2022/09/22 07:41:21;;;;;;;4.83;2.60;;;;;;;17.94;49.58;100839.38;4998636;28;20267;-61
2022/09/22 07:43:50;;;;;;;5.97;2.30;;;;;;;18.33;47.26;100843.41;5013109;28;20183;-63
2022/09/22 07:46:16;;;;;;;3.07;2.27;;;;;;;18.70;46.95;100840.59;5007765;28;20360;-62
2022/09/22 07:48:45;;;;;;;3.47;2.27;;;;;;;19.53;44.95;100837.63;5010745;28;20270;-62
2022/09/22 07:51:25;;;;;;;5.80;2.83;;;;;;;19.56;44.18;100839.16;5006273;28;20230;-63
2022/09/22 07:54:01;;;;;;;3.27;2.00;;;;;;;19.89;43.70;100838.22;5007669;28;20175;-69
2022/09/22 07:56:27;;;;;;;4.83;2.10;;;;;;;19.74;43.33;100834.25;5010147;28;20194;-68
2022/09/22 07:58:53;;;;;;;4.87;2.43;;;;;;;19.54;44.62;100835.88;5010124;28;20201;-67
2022/09/22 08:01:25;;;;;;;7.63;2.30;;;;;;;19.87;43.13;100834.94;5004493;28;20229;-67
2022/09/22 08:03:51;;;;;;;4.17;2.47;;;;;;;18.08;46.99;100834.00;5004332;28;20193;-66
2022/09/22 08:06:18;;;;;;;4.03;2.00;;;;;;;17.96;49.55;100838.34;5008183;28;20178;-67
2022/09/22 08:08:52;;;;;;;3.80;1.97;;;;;;;18.26;47.36;100838.75;5008599;28;20189;-65
2022/09/22 08:11:20;;;;;;;3.93;2.07;;;;;;;17.33;50.83;100835.91;4997610;28;20231;-64
2022/09/22 08:13:52;;;;;;;4.40;1.97;;;;;;;16.04;55.66;100837.75;5013162;28;20183;-68
2022/09/22 08:16:18;;;;;;;5.03;2.30;;;;;;;14.81;63.71;100840.19;5004476;28;20190;-67
2022/09/22 08:18:44;;;;;;;6.60;2.20;;;;;;;14.53;66.60;100844.41;5012492;28;20186;-66
2022/09/22 08:21:10;;;;;;;5.47;2.13;;;;;;;14.48;68.81;100845.63;5004132;28;20281;-65
2022/09/22 08:23:36;;;;;;;5.43;2.40;;;;;;;14.84;68.33;100842.59;5008974;28;20194;-64
2022/09/22 08:26:06;;;;;;;4.57;2.40;;;;;;;14.51;69.13;100842.81;5013654;28;20364;-65
2022/09/22 08:28:35;;;;;;;3.83;2.70;;;;;;;14.71;67.33;100841.69;5013599;28;20232;-62
2022/09/22 08:31:01;;;;;;;4.40;2.20;;;;;;;14.04;71.18;100837.75;5005021;28;20253;-65
2022/09/22 08:33:31;;;;;;;5.03;2.37;;;;;;;13.72;74.27;100847.34;5021650;28;20186;-68
2022/09/22 08:36:02;;;;;;;3.73;2.40;;;;;;;13.59;76.27;100838.59;5012263;28;20197;-62
2022/09/22 08:38:29;;;;;;;6.13;2.53;;;;;;;13.24;79.40;100827.47;5010690;28;20308;-69
2022/09/22 08:41:20;;;;;;;5.17;2.63;;;;;;;13.38;80.10;100838.84;5023131;28;20222;-67
2022/09/22 08:43:58;;;;;;;5.13;2.80;;;;;;;14.13;74.88;100828.63;5006366;28;20213;-67
2022/09/22 08:46:32;;;;;;;4.93;2.53;;;;;;;14.55;70.79;100841.75;5011990;28;20254;-67
2022/09/22 08:52:05;;;;;;;6.40;2.60;;;;;;;16.33;58.81;100840.19;5020418;28;20287;-67
2022/09/22 08:54:31;;;;;;;10.83;2.63;;;;;;;17.64;53.48;100838.06;5020879;28;20178;-67
2022/09/22 08:57:25;;;;;;;2.87;2.13;;;;;;;17.90;50.45;100836.19;5022891;28;20308;-67
2022/09/22 08:59:54;;;;;;;4.80;2.90;;;;;;;19.98;44.76;100837.47;5026726;28;20190;-67
2022/09/22 09:02:47;;;;;;;2.77;2.47;;;;;;;20.81;41.71;100839.28;5000966;28;20241;-67
2022/09/22 09:05:40;;;;;;;4.23;2.17;;;;;;;22.42;37.38;100832.88;5007986;28;20210;-69
2022/09/22 09:08:21;;;;;;;5.00;2.33;;;;;;;21.66;38.21;100837.13;5005470;28;20650;-68
2022/09/22 09:11:09;;;;;;;3.77;2.60;;;;;;;22.17;38.10;100832.50;5004772;28;20241;-67
2022/09/22 09:14:20;;;;;;;3.40;2.40;;;;;;;22.70;36.37;100838.97;4999800;28;20650;-67
2022/09/22 09:16:48;;;;;;;5.47;2.70;;;;;;;24.18;34.37;100836.13;4989048;28;20193;-67
2022/09/22 09:19:36;;;;;;;6.20;2.25;;;;;;;23.77;33.88;100839.25;5012177;28;20186;-67
2022/09/22 09:22:13;;;;;;;4.13;2.70;;;;;;;23.98;33.28;100841.56;5003619;28;20557;-67
2022/09/22 09:24:47;;;;;;;4.30;2.42;;;;;;;21.77;36.51;100841.41;5011207;28;20190;-67
2022/09/22 09:27:18;;;;;;;4.63;2.55;;;;;;;21.40;37.93;100832.41;5010703;28;20199;-69
2022/09/22 09:29:52;;;;;;;4.97;2.28;;;;;;;22.65;34.88;100835.13;5011096;28;20190;-67
2022/09/22 09:32:32;;;;;;;5.63;2.45;;;;;;;21.96;36.19;100837.09;5002247;28;20236;-67
2022/09/22 09:35:02;;;;;;;8.95;2.70;;;;;;;24.01;34.04;100835.19;5008874;28;20217;-67
2022/09/22 09:37:30;;;;;;;3.88;2.22;;;;;;;25.94;30.47;100825.72;5013697;28;20205;-67
2022/09/22 09:40:01;;;;;;;4.05;2.28;;;;;;;27.39;28.40;100832.53;5022261;28;20223;-68
2022/09/22 09:42:32;;;;;;;5.28;2.47;;;;;;;25.98;30.26;100823.56;5000776;28;20226;-65
2022/09/22 09:45:01;;;;;;;4.40;2.10;;;;;;;26.51;28.09;100836.31;5019373;28;20793;-67
2022/09/22 09:47:54;;;;;;;3.67;2.28;;;;;;;22.87;33.34;100828.66;5022219;28;20183;-66
2022/09/22 09:50:21;;;;;;;4.63;2.05;;;;;;;24.42;32.09;100824.09;5014004;28;20278;-66
2022/09/22 09:52:50;;;;;;;6.60;2.03;;;;;;;25.96;30.13;100816.81;5025566;28;20189;-66
2022/09/22 09:55:26;;;;;;;3.72;2.10;;;;;;;25.60;30.34;100821.47;5012080;28;20185;-66
2022/09/22 09:58:10;;;;;;;5.03;2.13;;;;;;;24.32;31.17;100816.31;5013778;28;20179;-68
2022/09/22 10:00:56;;;;;;;6.25;2.55;;;;;;;25.95;28.50;100813.38;5018807;28;20734;-67
2022/09/22 10:03:29;;;;;;;6.72;1.90;;;;;;;26.02;28.41;100816.97;5028707;28;20299;-68
2022/09/22 10:06:09;;;;;;;2.78;2.30;;;;;;;27.94;26.24;100816.56;5018503;28;20259;-68
2022/09/22 10:08:56;;;;;;;4.85;1.85;;;;;;;27.97;26.04;100820.66;5005615;28;20646;-68
2022/09/22 10:11:29;;;;;;;3.63;1.95;;;;;;;26.24;27.89;100810.19;5010342;28;20237;-68
2022/09/22 10:13:56;;;;;;;4.60;2.10;;;;;;;27.21;26.92;100806.44;5018171;28;20240;-68
2022/09/22 10:16:34;;;;;;;5.85;2.15;;;;;;;26.65;27.02;100805.75;5013612;28;20210;-66
2022/09/22 10:19:16;;;;;;;5.40;2.45;;;;;;;26.41;28.70;100803.03;5023341;28;20197;-68
2022/09/22 10:21:42;;;;;;;4.05;2.17;;;;;;;24.21;30.71;100804.25;5005463;28;20308;-67
2022/09/22 10:24:27;;;;;;;5.28;1.88;;;;;;;21.80;33.65;100788.72;5010037;28;20713;-68
2022/09/22 10:26:56;;;;;;;2.92;1.73;;;;;;;20.29;36.26;100795.75;5013342;28;20213;-68
2022/09/22 10:29:26;;;;;;;3.58;1.50;;;;;;;18.46;39.78;100793.81;5019851;28;20497;-68
2022/09/22 10:32:15;;;;;;;4.43;1.60;;;;;;;17.88;41.94;100789.41;5017776;28;20269;-67
2022/09/22 10:34:49;;;;;;;2.13;1.67;;;;;;;18.37;42.22;100782.31;5016455;28;20179;-67
2022/09/22 10:37:19;;;;;;;2.80;1.40;;;;;;;17.89;43.97;100785.88;5017139;28;20194;-67
2022/09/22 10:39:47;;;;;;;4.90;2.63;;;;;;;16.66;46.70;100784.28;5009680;28;20260;-66
2022/09/22 10:42:34;;;;;;;5.87;2.17;;;;;;;16.58;46.95;100774.41;5001592;28;20740;-67
2022/09/22 10:45:18;;;;;;;7.43;1.80;;;;;;;16.53;48.00;100776.50;5003259;28;20276;-67
2022/09/22 10:48:01;;;;;;;2.43;2.00;;;;;;;16.72;49.61;100768.25;5020833;28;20628;-67
2022/09/22 10:51:11;;;;;;;3.17;1.93;;;;;;;16.06;50.00;100764.09;5017766;28;20657;-67
2022/09/22 10:53:45;;;;;;;4.10;1.60;;;;;;;15.91;49.05;100763.31;5002558;28;20186;-67
2022/09/22 10:56:17;;;;;;;2.47;1.80;;;;;;;15.80;50.55;100763.16;5017271;28;20909;-67
2022/09/22 10:59:04;;;;;;;6.47;1.70;;;;;;;15.84;50.23;100763.81;5009895;28;20186;-69
2022/09/22 11:01:49;;;;;;;4.37;1.63;;;;;;;15.89;49.57;100759.16;4998021;28;20233;-67
2022/09/22 11:04:37;;;;;;;4.40;1.57;;;;;;;15.86;49.69;100755.00;5007960;28;20291;-67
2022/09/22 11:13:13;;;;;;;2.20;1.60;;;;;;;15.94;49.45;100749.34;5005401;28;20229;-66
2022/09/22 11:16:03;;;;;;;2.37;1.73;;;;;;;15.97;50.86;100744.75;5006389;28;20233;-67
2022/09/22 11:19:01;;;;;;;1.63;1.00;;;;;;;16.07;48.98;100742.34;5009871;28;20189;-67
2022/09/22 11:21:43;;;;;;;2.40;1.30;;;;;;;15.86;45.87;100742.03;5001170;28;20316;-67
2022/09/22 11:24:31;;;;;;;1.93;1.30;;;;;;;15.61;43.35;100741.03;5016966;28;20772;-67
2022/09/22 11:27:00;;;;;;;2.50;1.10;;;;;;;15.69;44.54;100727.59;5019285;28;20193;-67
2022/09/22 11:29:31;;;;;;;1.93;1.10;;;;;;;16.00;44.96;100738.53;5010828;28;20205;-67
2022/09/22 11:32:33;;;;;;;2.53;1.10;;;;;;;15.96;45.18;100726.69;4979135;28;20670;-67
2022/09/22 11:35:27;;;;;;;1.53;0.90;;;;;;;16.11;46.63;100728.25;5019363;28;20190;-67
2022/09/22 11:38:05;;;;;;;2.83;1.33;;;;;;;16.27;46.24;100727.19;4978123;28;20194;-67
2022/09/22 11:41:01;;;;;;;4.80;1.23;;;;;;;16.41;48.05;100715.84;5006117;28;20295;-68
2022/09/22 11:43:47;;;;;;;3.30;1.20;;;;;;;16.59;46.90;100719.78;5014715;28;20195;-70
2022/09/22 11:46:27;;;;;;;3.07;1.07;;;;;;;16.61;47.91;100714.50;5008135;28;20689;-69
2022/09/22 11:49:17;;;;;;;5.07;1.60;;;;;;;16.90;45.53;100711.59;5002417;28;20194;-68
2022/09/22 11:52:12;;;;;;;4.00;1.40;;;;;;;17.05;45.52;100704.50;5008450;28;20246;-69
2022/09/22 11:55:17;;;;;;;1.60;1.20;;;;;;;16.99;45.24;100704.94;5015151;28;20186;-69